Time;durP1;ratioP1;P1;durP2;ratioP2;P2;SDS_P1;SDS_P2;PMS_P1;PMS_P2;Temp;Humidity;BMP_temperature;BMP_pressure;BME280_temperature;BME280_humidity;BME280_pressure;Samples;Min_cycle;Max_cycle;Signal;HPM_P1;HPM_P2
2022/09/08 00:01:46;;;;;;;;;;;;;;;14.56;80.18;98773.83;105248;1271;61454;-71
2022/09/08 00:04:12;;;;;;;;;;;;;;;14.54;80.17;98772.95;105205;1271;61358;-70
2022/09/08 00:06:38;;;;;;;;;;;;;;;14.50;80.52;98768.23;105220;1271;61285;-70
2022/09/08 00:09:04;;;;;;;;;;;;;;;14.46;80.60;98770.34;105244;1270;61377;-70
2022/09/08 00:11:31;;;;;;;;;;;;;;;14.44;80.65;98775.58;105226;1271;61376;-70
2022/09/08 00:13:58;;;;;;;;;;;;;;;14.42;80.66;98778.90;105220;1271;61344;-70
2022/09/08 00:16:25;;;;;;;;;;;;;;;14.41;80.43;98777.60;105242;1271;61319;-70
2022/09/08 00:18:51;;;;;;;;;;;;;;;14.40;80.54;98774.98;105275;1271;61374;-69
2022/09/08 00:21:23;;;;;;;;;;;;;;;14.39;80.43;98772.05;105206;1271;61380;-70
2022/09/08 00:23:50;;;;;;;;;;;;;;;14.38;80.35;98773.91;105233;1271;69319;-70
2022/09/08 00:26:17;;;;;;;;;;;;;;;14.37;80.41;98772.94;105200;1271;74479;-69
2022/09/08 00:28:43;;;;;;;;;;;;;;;14.36;80.44;98779.05;105008;1274;61536;-70
2022/09/08 00:31:09;;;;;;;;;;;;;;;14.35;80.49;98773.29;105192;1271;61294;-70
2022/09/08 00:33:35;;;;;;;;;;;;;;;14.33;80.59;98775.83;105233;1271;61361;-70
2022/09/08 00:36:03;;;;;;;;;;;;;;;14.30;80.83;98771.23;105217;1271;61371;-70
2022/09/08 00:38:31;;;;;;;;;;;;;;;14.26;80.86;98767.60;104999;1272;73581;-69
2022/09/08 00:40:57;;;;;;;;;;;;;;;14.23;80.98;98766.95;105290;1271;61389;-70
2022/09/08 00:43:40;;;;;;;;;;;;;;;14.20;81.04;98770.63;105220;1271;61266;-70
2022/09/08 00:46:12;;;;;;;;;;;;;;;14.16;81.13;98765.39;105215;1271;75544;-70
2022/09/08 00:48:43;;;;;;;;;;;;;;;14.15;81.14;98767.52;105216;1271;70906;-70
2022/09/08 00:51:09;;;;;;;;;;;;;;;14.13;81.26;98768.78;104988;1271;73274;-70
2022/09/08 00:53:37;;;;;;;;;;;;;;;14.10;81.26;98768.62;105208;1271;61245;-71
2022/09/08 00:56:05;;;;;;;;;;;;;;;14.08;81.51;98762.63;105368;1271;61318;-70
2022/09/08 00:58:33;;;;;;;;;;;;;;;14.05;81.57;98760.83;105242;1271;76524;-71
2022/09/08 01:01:00;;;;;;;;;;;;;;;14.01;81.51;98761.71;105206;1271;69683;-68
2022/09/08 01:03:26;;;;;;;;;;;;;;;13.97;81.59;98761.00;105118;1274;61390;-69
2022/09/08 01:05:52;;;;;;;;;;;;;;;13.93;81.58;98763.79;105311;1271;61307;-69
2022/09/08 01:14:12;;;;;;;;;;;;;;;13.86;81.86;98756.38;105170;1271;70412;-69
2022/09/08 01:16:41;;;;;;;;;;;;;;;13.84;81.71;98755.80;105236;1271;61368;-68
2022/09/08 01:19:12;;;;;;;;;;;;;;;13.82;81.82;98755.11;105320;1271;61229;-70
2022/09/08 01:21:38;;;;;;;;;;;;;;;13.80;81.95;98757.23;105157;1271;61281;-70
2022/09/08 01:24:08;;;;;;;;;;;;;;;13.76;81.97;98758.41;105157;1271;61291;-71
2022/09/08 01:26:37;;;;;;;;;;;;;;;13.74;82.08;98755.38;105271;1271;69709;-69
2022/09/08 01:29:08;;;;;;;;;;;;;;;13.71;82.13;98756.35;105223;1271;74558;-71
2022/09/08 01:31:39;;;;;;;;;;;;;;;13.68;82.18;98755.54;105229;1271;61278;-71
2022/09/08 01:34:05;;;;;;;;;;;;;;;13.65;82.46;98753.65;105001;1271;61351;-70
2022/09/08 01:36:32;;;;;;;;;;;;;;;13.64;82.52;98754.67;105234;1271;61282;-69
2022/09/08 01:38:58;;;;;;;;;;;;;;;13.62;82.82;98755.54;105018;1272;61406;-70
2022/09/08 01:41:23;;;;;;;;;;;;;;;13.61;82.81;98751.86;105204;1271;61361;-70
2022/09/08 01:43:50;;;;;;;;;;;;;;;13.59;83.07;98752.59;105222;1271;61299;-70
2022/09/08 01:46:16;;;;;;;;;;;;;;;13.56;83.36;98755.45;105242;1271;61258;-71
2022/09/08 01:48:41;;;;;;;;;;;;;;;13.53;83.45;98757.01;105222;1271;61292;-70
2022/09/08 01:51:08;;;;;;;;;;;;;;;13.50;83.58;98752.39;105197;1271;61476;-70
2022/09/08 01:53:34;;;;;;;;;;;;;;;13.48;83.90;98747.61;105390;1271;61397;-70
2022/09/08 01:56:01;;;;;;;;;;;;;;;13.45;84.02;98746.23;105241;1271;61200;-71
2022/09/08 01:58:27;;;;;;;;;;;;;;;13.42;84.20;98744.17;105249;1271;76349;-69
2022/09/08 02:00:53;;;;;;;;;;;;;;;13.39;84.40;98744.25;105231;1271;61374;-69
2022/09/08 02:03:19;;;;;;;;;;;;;;;13.37;84.40;98743.16;105192;1271;61262;-70
2022/09/08 02:05:46;;;;;;;;;;;;;;;13.35;84.51;98740.10;105231;1271;61383;-69
2022/09/08 02:08:12;;;;;;;;;;;;;;;13.33;84.54;98739.02;105251;1271;61384;-69
2022/09/08 02:10:38;;;;;;;;;;;;;;;13.31;84.54;98736.98;105240;1271;59991;-69
2022/09/08 02:13:05;;;;;;;;;;;;;;;13.30;84.79;98731.23;105291;1271;61285;-70
2022/09/08 02:15:31;;;;;;;;;;;;;;;13.28;84.79;98727.78;105189;1271;61342;-70
2022/09/08 02:17:58;;;;;;;;;;;;;;;13.27;85.02;98725.23;105183;1271;61392;-70
2022/09/08 02:20:24;;;;;;;;;;;;;;;13.25;85.13;98717.50;105205;1271;61239;-71
2022/09/08 02:22:51;;;;;;;;;;;;;;;13.23;85.29;98719.14;105238;1271;61261;-71
2022/09/08 02:25:17;;;;;;;;;;;;;;;13.21;85.38;98717.17;105253;1271;61357;-70
2022/09/08 02:27:43;;;;;;;;;;;;;;;13.19;85.48;98718.90;105027;1271;61364;-71
2022/09/08 02:30:09;;;;;;;;;;;;;;;13.16;85.63;98714.64;105200;1271;61355;-71
2022/09/08 02:32:35;;;;;;;;;;;;;;;13.15;85.67;98715.12;105224;1271;61288;-70
2022/09/08 02:35:02;;;;;;;;;;;;;;;13.13;85.82;98713.83;105281;1271;61368;-70
2022/09/08 02:37:28;;;;;;;;;;;;;;;13.12;85.85;98713.23;105247;1271;72760;-70
2022/09/08 02:39:53;;;;;;;;;;;;;;;13.10;86.08;98705.66;105240;1271;61285;-70
2022/09/08 02:42:21;;;;;;;;;;;;;;;13.08;86.35;98698.58;105194;1271;61368;-69
2022/09/08 02:44:47;;;;;;;;;;;;;;;13.05;86.51;98695.41;105264;1271;61269;-69
2022/09/08 02:47:12;;;;;;;;;;;;;;;13.03;86.85;98694.55;105283;1271;61450;-69
2022/09/08 02:49:39;;;;;;;;;;;;;;;13.00;87.16;98695.45;105180;1271;61395;-69
2022/09/08 02:52:05;;;;;;;;;;;;;;;12.97;87.25;98690.55;105232;1271;61371;-70
2022/09/08 02:54:31;;;;;;;;;;;;;;;12.94;87.76;98689.67;105236;1271;61294;-70
2022/09/08 02:56:57;;;;;;;;;;;;;;;12.92;88.17;98693.82;105196;1271;61457;-69
2022/09/08 02:59:23;;;;;;;;;;;;;;;12.88;88.48;98695.41;105261;1271;61263;-69
2022/09/08 03:01:49;;;;;;;;;;;;;;;12.85;88.86;98694.39;105244;1271;61363;-69
2022/09/08 03:04:16;;;;;;;;;;;;;;;12.82;89.24;98696.77;105308;1271;61278;-69
2022/09/08 03:06:43;;;;;;;;;;;;;;;12.80;89.49;98695.89;105255;1271;76417;-70
2022/09/08 03:09:09;;;;;;;;;;;;;;;12.77;89.85;98694.64;105252;1271;69228;-70
2022/09/08 03:11:35;;;;;;;;;;;;;;;12.76;90.02;98693.91;105069;1271;61369;-70
2022/09/08 03:14:01;;;;;;;;;;;;;;;12.73;90.27;98695.11;105245;1271;61336;-69
2022/09/08 03:16:28;;;;;;;;;;;;;;;12.71;90.30;98697.23;105319;1271;61392;-70
2022/09/08 03:18:54;;;;;;;;;;;;;;;12.69;90.42;98695.08;105231;1271;61285;-70
2022/09/08 03:21:20;;;;;;;;;;;;;;;12.69;90.83;98693.52;105215;1271;61380;-70
2022/09/08 03:23:47;;;;;;;;;;;;;;;12.68;91.04;98693.81;105234;1271;61361;-69
2022/09/08 03:26:18;;;;;;;;;;;;;;;12.67;91.27;98693.52;105394;1271;61286;-71
2022/09/08 03:28:44;;;;;;;;;;;;;;;12.67;91.36;98690.88;105239;1271;61192;-70
2022/09/08 03:31:13;;;;;;;;;;;;;;;12.66;91.31;98690.02;105230;1271;61367;-70
2022/09/08 03:33:39;;;;;;;;;;;;;;;12.65;91.52;98687.92;105244;1271;69627;-70
2022/09/08 03:36:07;;;;;;;;;;;;;;;12.65;91.60;98687.65;105216;1271;73307;-70
2022/09/08 03:38:34;;;;;;;;;;;;;;;12.63;91.90;98686.02;105196;1271;61473;-70
2022/09/08 03:41:01;;;;;;;;;;;;;;;12.61;92.37;98681.84;105233;1271;61606;-70
2022/09/08 03:43:27;;;;;;;;;;;;;;;12.61;93.02;98679.57;105242;1271;73573;-70
2022/09/08 03:45:53;;;;;;;;;;;;;;;12.59;93.08;98679.75;105218;1271;61390;-70
2022/09/08 03:48:19;;;;;;;;;;;;;;;12.58;93.13;98679.59;105209;1271;61297;-70
2022/09/08 03:50:45;;;;;;;;;;;;;;;12.58;93.68;98684.13;105229;1271;61345;-71
2022/09/08 03:53:11;;;;;;;;;;;;;;;12.57;93.91;98687.77;105252;1271;61262;-70
2022/09/08 03:55:41;;;;;;;;;;;;;;;12.57;94.17;98687.25;105192;1270;61253;-70
2022/09/08 03:58:07;;;;;;;;;;;;;;;12.57;94.26;98688.85;105217;1271;70370;-70
2022/09/08 04:00:33;;;;;;;;;;;;;;;12.57;94.58;98689.16;105003;1271;62752;-70
2022/09/08 04:02:59;;;;;;;;;;;;;;;12.57;94.48;98689.84;105214;1271;62983;-70
2022/09/08 04:05:25;;;;;;;;;;;;;;;12.58;94.73;98686.77;105213;1271;61418;-70
2022/09/08 04:07:51;;;;;;;;;;;;;;;12.59;95.02;98679.39;105199;1271;78938;-70
2022/09/08 04:10:19;;;;;;;;;;;;;;;12.59;95.24;98673.46;105246;1271;61307;-70
2022/09/08 04:12:45;;;;;;;;;;;;;;;12.60;95.35;98669.98;105279;1271;61274;-70
2022/09/08 04:15:12;;;;;;;;;;;;;;;12.62;96.04;98667.02;105204;1271;61380;-70
2022/09/08 04:17:38;;;;;;;;;;;;;;;12.64;95.81;98668.47;105364;1271;61341;-70
2022/09/08 04:20:05;;;;;;;;;;;;;;;12.65;95.83;98668.51;105201;1271;61378;-70
2022/09/08 04:22:33;;;;;;;;;;;;;;;12.68;95.73;98673.13;105236;1271;61374;-70
2022/09/08 04:24:59;;;;;;;;;;;;;;;12.69;95.65;98669.68;105143;1271;73527;-70
2022/09/08 04:27:25;;;;;;;;;;;;;;;12.73;95.63;98668.42;105154;1271;61292;-70
2022/09/08 04:29:51;;;;;;;;;;;;;;;12.78;95.43;98668.77;105228;1271;61262;-70
2022/09/08 04:32:17;;;;;;;;;;;;;;;12.91;94.63;98670.20;105224;1271;61348;-70
2022/09/08 04:34:43;;;;;;;;;;;;;;;13.10;93.77;98669.34;105182;1271;61308;-70
2022/09/08 04:37:09;;;;;;;;;;;;;;;13.28;92.99;98667.53;105199;1271;61354;-70
2022/09/08 04:39:35;;;;;;;;;;;;;;;13.47;92.20;98672.92;105125;1271;61334;-70
2022/09/08 04:42:01;;;;;;;;;;;;;;;13.66;91.44;98671.48;105242;1271;61346;-69
2022/09/08 04:44:27;;;;;;;;;;;;;;;13.78;90.65;98672.92;105214;1271;70372;-70
2022/09/08 04:46:53;;;;;;;;;;;;;;;13.78;90.62;98677.26;105189;1271;61329;-70
2022/09/08 04:49:19;;;;;;;;;;;;;;;13.92;90.26;98672.61;105210;1271;61311;-70
2022/09/08 04:51:46;;;;;;;;;;;;;;;14.19;89.15;98668.15;105201;1271;61309;-70
2022/09/08 04:54:12;;;;;;;;;;;;;;;14.43;87.82;98657.98;105209;1271;61352;-72
2022/09/08 04:56:38;;;;;;;;;;;;;;;14.65;86.84;98657.02;105223;1271;61380;-71
2022/09/08 04:59:04;;;;;;;;;;;;;;;14.87;85.96;98653.80;105230;1271;61309;-72
2022/09/08 05:01:32;;;;;;;;;;;;;;;15.08;85.05;98658.30;105232;1271;61265;-71
2022/09/08 05:04:00;;;;;;;;;;;;;;;15.30;83.59;98657.36;105227;1271;61191;-71
2022/09/08 05:06:27;;;;;;;;;;;;;;;15.41;82.51;98659.79;105041;1271;76282;-71
2022/09/08 05:08:55;;;;;;;;;;;;;;;15.54;82.05;98663.55;105251;1271;70310;-70
2022/09/08 05:11:21;;;;;;;;;;;;;;;15.60;81.15;98663.00;105214;1271;74950;-71
2022/09/08 05:13:49;;;;;;;;;;;;;;;15.42;81.17;98665.79;105239;1271;61457;-72
2022/09/08 05:16:16;;;;;;;;;;;;;;;15.43;80.82;98666.96;105206;1271;61788;-71
2022/09/08 05:18:45;;;;;;;;;;;;;;;15.51;80.27;98668.85;105210;1271;74547;-71
2022/09/08 05:21:11;;;;;;;;;;;;;;;15.66;79.66;98666.77;105195;1271;69256;-69
2022/09/08 05:23:37;;;;;;;;;;;;;;;15.81;79.33;98660.95;105235;1271;61395;-69
2022/09/08 05:26:06;;;;;;;;;;;;;;;15.93;79.13;98661.20;105210;1271;61354;-70
2022/09/08 05:28:34;;;;;;;;;;;;;;;16.06;78.47;98661.23;105305;1271;61308;-70
2022/09/08 05:31:00;;;;;;;;;;;;;;;16.18;78.20;98665.13;105220;1271;74848;-70
2022/09/08 05:33:26;;;;;;;;;;;;;;;16.28;78.10;98657.73;105238;1271;61279;-70
2022/09/08 05:35:54;;;;;;;;;;;;;;;16.42;77.94;98651.34;105183;1271;61371;-70
2022/09/08 05:38:19;;;;;;;;;;;;;;;16.59;77.69;98653.86;105238;1271;61310;-70
2022/09/08 05:40:46;;;;;;;;;;;;;;;16.75;77.27;98652.80;105241;1271;61293;-70
2022/09/08 05:43:12;;;;;;;;;;;;;;;16.89;76.72;98652.90;105231;1271;61151;-70
2022/09/08 05:45:37;;;;;;;;;;;;;;;16.98;75.95;98649.64;105228;1271;61281;-70
2022/09/08 05:48:04;;;;;;;;;;;;;;;17.09;75.84;98649.48;105171;1271;61375;-70
2022/09/08 05:50:34;;;;;;;;;;;;;;;17.20;75.61;98643.36;105189;1271;61300;-70
2022/09/08 05:53:01;;;;;;;;;;;;;;;17.26;74.89;98639.35;105241;1271;61272;-71
2022/09/08 05:55:28;;;;;;;;;;;;;;;17.27;74.08;98639.55;105260;1271;75326;-69
2022/09/08 05:57:55;;;;;;;;;;;;;;;17.32;74.40;98639.23;105032;1271;69546;-70
2022/09/08 06:00:21;;;;;;;;;;;;;;;17.41;73.98;98638.02;105272;1271;74389;-70
2022/09/08 06:02:53;;;;;;;;;;;;;;;17.47;73.72;98636.71;105200;1271;61326;-70
2022/09/08 06:05:20;;;;;;;;;;;;;;;17.58;73.64;98634.91;105314;1271;61224;-70
2022/09/08 06:07:47;;;;;;;;;;;;;;;17.65;73.55;98640.61;105184;1271;75488;-69
2022/09/08 06:10:14;;;;;;;;;;;;;;;17.69;73.27;98640.20;105208;1271;70283;-71
2022/09/08 06:12:40;;;;;;;;;;;;;;;17.75;73.25;98636.50;105169;1271;72493;-70
2022/09/08 06:15:06;;;;;;;;;;;;;;;17.83;72.95;98638.27;105034;1271;61407;-70
2022/09/08 06:17:33;;;;;;;;;;;;;;;17.89;73.21;98637.30;105433;1271;61285;-71
2022/09/08 06:19:59;;;;;;;;;;;;;;;17.87;73.49;98636.39;105187;1271;61265;-70
2022/09/08 06:22:25;;;;;;;;;;;;;;;17.92;73.20;98640.42;103963;1271;1688802;-70
2022/09/08 06:24:51;;;;;;;;;;;;;;;17.99;73.19;98641.33;105180;1271;61239;-70
2022/09/08 06:27:23;;;;;;;;;;;;;;;18.08;73.32;98642.31;105142;1271;61293;-70
2022/09/08 06:29:54;;;;;;;;;;;;;;;18.13;73.63;98640.02;104949;1271;61246;-70
2022/09/08 06:32:27;;;;;;;;;;;;;;;18.11;74.00;98638.45;105211;1271;76596;-70
2022/09/08 06:34:56;;;;;;;;;;;;;;;18.08;74.07;98638.91;105199;1271;70500;-70
2022/09/08 06:37:49;;;;;;;;;;;;;;;17.89;73.40;98639.13;105234;1271;73439;-70
2022/09/08 06:40:17;;;;;;;;;;;;;;;17.60;74.09;98641.81;104583;1277;61450;-70
2022/09/08 06:42:43;;;;;;;;;;;;;;;17.48;74.65;98635.52;104666;1277;61359;-70
2022/09/08 06:45:18;;;;;;;;;;;;;;;17.40;74.90;98631.87;104589;1277;61295;-70
2022/09/08 06:47:47;;;;;;;;;;;;;;;17.29;75.61;98628.58;104555;1277;70882;-69
2022/09/08 06:50:14;;;;;;;;;;;;;;;17.30;75.88;98630.48;104461;1277;73265;-70
2022/09/08 06:52:51;;;;;;;;;;;;;;;17.31;76.19;98635.60;104543;1278;61396;-70
2022/09/08 06:55:32;;;;;;;;;;;;;;;17.30;76.30;98630.27;104553;1277;61282;-70
2022/09/08 06:58:24;;;;;;;;;;;;;;;17.28;76.74;98625.45;104568;1277;76558;-70
2022/09/08 07:00:58;;;;;;;;;;;;;;;17.31;77.10;98624.50;104500;1277;69536;-70
2022/09/08 07:03:43;;;;;;;;;;;;;;;17.33;77.48;98618.50;104548;1277;73330;-70
2022/09/08 07:06:10;;;;;;;;;;;;;;;17.32;77.67;98614.52;104537;1277;61330;-70
2022/09/08 07:08:36;;;;;;;;;;;;;;;17.40;78.12;98612.61;104537;1277;61188;-69
2022/09/08 07:11:04;;;;;;;;;;;;;;;17.41;77.95;98607.48;104536;1277;61436;-70
2022/09/08 07:13:39;;;;;;;;;;;;;;;17.48;78.39;98605.81;104562;1277;69457;-70
2022/09/08 07:16:06;;;;;;;;;;;;;;;17.63;78.41;98606.33;104537;1277;74099;-70
2022/09/08 07:18:35;;;;;;;;;;;;;;;17.76;78.68;98601.05;105076;1271;61274;-70
2022/09/08 07:21:21;;;;;;;;;;;;;;;17.93;78.77;98601.98;105190;1271;61223;-71
2022/09/08 07:23:49;;;;;;;;;;;;;;;18.05;78.40;98597.00;104912;1271;76898;-70
2022/09/08 07:26:27;;;;;;;;;;;;;;;18.09;78.42;98594.46;105189;1271;69380;-71
2022/09/08 07:28:55;;;;;;;;;;;;;;;18.19;78.52;98592.88;105194;1271;72974;-70
2022/09/08 07:31:23;;;;;;;;;;;;;;;18.26;78.22;98588.91;105178;1271;61323;-71
2022/09/08 07:33:52;;;;;;;;;;;;;;;18.31;78.16;98589.58;105212;1271;61256;-70
2022/09/08 07:36:37;;;;;;;;;;;;;;;18.37;78.51;98595.20;104993;1272;74529;-70
2022/09/08 07:39:19;;;;;;;;;;;;;;;18.38;78.24;98590.28;105174;1271;69448;-70
2022/09/08 07:41:48;;;;;;;;;;;;;;;18.43;78.80;98582.75;105187;1271;74849;-70
2022/09/08 07:44:16;;;;;;;;;;;;;;;18.55;79.15;98579.54;105284;1270;61403;-71
2022/09/08 07:46:48;;;;;;;;;;;;;;;18.67;79.00;98579.83;105195;1271;61332;-70
2022/09/08 07:49:33;;;;;;;;;;;;;;;18.76;78.81;98571.30;105190;1271;75686;-70
2022/09/08 07:52:08;;;;;;;;;;;;;;;18.87;79.01;98573.18;104949;1271;70666;-70
2022/09/08 07:54:46;;;;;;;;;;;;;;;19.04;78.99;98573.70;105200;1271;74473;-70
2022/09/08 07:57:27;;;;;;;;;;;;;;;19.20;78.78;98572.98;105014;1271;61169;-71
2022/09/08 08:00:00;;;;;;;;;;;;;;;19.25;78.07;98569.96;105210;1271;61306;-72
2022/09/08 08:02:28;;;;;;;;;;;;;;;19.33;77.82;98573.84;105180;1271;76553;-70
2022/09/08 08:05:18;;;;;;;;;;;;;;;19.35;77.19;98572.89;105294;1271;69788;-71
2022/09/08 08:08:07;;;;;;;;;;;;;;;19.39;77.42;98576.14;105188;1271;73581;-72
2022/09/08 08:10:53;;;;;;;;;;;;;;;19.51;77.74;98565.35;105172;1271;61264;-70
2022/09/08 08:13:38;;;;;;;;;;;;;;;19.66;77.70;98562.40;105210;1271;61271;-72
2022/09/08 08:16:07;;;;;;;;;;;;;;;19.84;77.88;98555.59;105209;1271;75693;-71
2022/09/08 08:18:51;;;;;;;;;;;;;;;19.98;76.78;98559.96;105194;1271;69500;-71
2022/09/08 08:21:24;;;;;;;;;;;;;;;20.01;76.34;98559.20;105157;1271;74441;-71
2022/09/08 08:23:54;;;;;;;;;;;;;;;20.07;76.09;98556.58;105212;1271;61314;-71
2022/09/08 08:26:32;;;;;;;;;;;;;;;20.10;75.70;98556.70;105208;1271;61269;-72
2022/09/08 08:29:17;;;;;;;;;;;;;;;20.13;75.38;98559.67;104944;1271;76514;-71
2022/09/08 08:31:47;;;;;;;;;;;;;;;20.16;75.63;98554.97;105209;1271;70060;-72
2022/09/08 08:34:24;;;;;;;;;;;;;;;20.27;75.95;98547.04;105216;1271;72864;-71
2022/09/08 08:36:53;;;;;;;;;;;;;;;20.42;76.11;98540.14;105186;1271;61370;-72
2022/09/08 08:39:21;;;;;;;;;;;;;;;20.59;76.01;98532.40;105221;1271;61370;-71
2022/09/08 08:41:46;;;;;;;;;;;;;;;20.74;75.65;98534.55;105141;1271;76558;-71
2022/09/08 08:44:21;;;;;;;;;;;;;;;20.87;75.51;98526.39;105207;1271;61356;-71
2022/09/08 08:47:10;;;;;;;;;;;;;;;21.04;75.57;98530.00;105186;1271;72745;-72
2022/09/08 08:49:48;;;;;;;;;;;;;;;21.25;75.56;98525.55;105228;1271;61282;-72
2022/09/08 08:52:20;;;;;;;;;;;;;;;21.41;75.13;98520.70;105237;1271;61403;-72
2022/09/08 08:54:59;;;;;;;;;;;;;;;21.54;74.30;98518.85;105208;1271;76201;-72
2022/09/08 08:57:24;;;;;;;;;;;;;;;21.59;73.30;98521.39;105212;1271;68388;-71
2022/09/08 08:59:50;;;;;;;;;;;;;;;21.63;73.23;98524.84;105185;1271;61298;-72
2022/09/08 09:02:17;;;;;;;;;;;;;;;21.66;72.83;98522.80;105234;1271;61368;-71
2022/09/08 09:04:53;;;;;;;;;;;;;;;21.72;73.48;98520.23;105237;1271;61272;-71
2022/09/08 09:07:31;;;;;;;;;;;;;;;21.92;73.16;98519.21;105217;1271;76616;-73
2022/09/08 09:10:15;;;;;;;;;;;;;;;22.01;71.88;98522.23;105241;1271;70439;-73
2022/09/08 09:12:59;;;;;;;;;;;;;;;22.03;71.52;98521.80;105301;1271;73194;-72
2022/09/08 09:15:31;;;;;;;;;;;;;;;22.06;71.01;98516.40;105231;1271;61256;-71
2022/09/08 09:17:57;;;;;;;;;;;;;;;22.10;70.95;98512.42;105230;1271;61304;-72
2022/09/08 09:20:38;;;;;;;;;;;;;;;22.19;71.32;98512.26;105220;1271;61280;-73
2022/09/08 09:23:12;;;;;;;;;;;;;;;22.35;71.59;98510.61;105222;1271;70445;-72
2022/09/08 09:25:44;;;;;;;;;;;;;;;22.56;71.50;98507.09;105249;1271;74148;-72
2022/09/08 09:28:29;;;;;;;;;;;;;;;22.72;70.86;98502.92;105241;1271;61863;-72
2022/09/08 09:31:11;;;;;;;;;;;;;;;22.87;71.15;98495.98;105261;1271;62313;-73
2022/09/08 09:33:37;;;;;;;;;;;;;;;23.04;70.12;98498.42;105247;1271;75337;-72
2022/09/08 09:36:15;;;;;;;;;;;;;;;23.08;69.92;98492.98;105204;1271;61362;-71
2022/09/08 09:38:51;;;;;;;;;;;;;;;23.22;70.52;98490.17;105226;1271;74358;-72
2022/09/08 09:41:17;;;;;;;;;;;;;;;23.33;69.77;98488.17;105193;1271;61383;-72
2022/09/08 09:43:52;;;;;;;;;;;;;;;23.48;70.05;98487.16;105227;1271;61425;-71
2022/09/08 09:46:32;;;;;;;;;;;;;;;23.65;69.54;98488.91;105200;1271;76402;-71
2022/09/08 09:49:21;;;;;;;;;;;;;;;23.80;69.98;98487.38;104998;1271;67703;-71
2022/09/08 09:51:47;;;;;;;;;;;;;;;24.00;69.44;98484.59;105233;1271;74127;-71
2022/09/08 09:54:21;;;;;;;;;;;;;;;24.14;69.21;98482.19;105258;1271;61355;-71
2022/09/08 09:56:46;;;;;;;;;;;;;;;24.25;68.33;98482.77;105034;1271;61458;-71
2022/09/08 09:59:15;;;;;;;;;;;;;;;24.26;67.53;98482.36;105213;1271;61304;-73
2022/09/08 10:02:10;;;;;;;;;;;;;;;24.25;67.36;98478.71;105266;1271;69480;-73
2022/09/08 10:04:45;;;;;;;;;;;;;;;24.32;68.26;98475.27;105222;1271;73510;-71
2022/09/08 10:07:17;;;;;;;;;;;;;;;24.48;67.99;98473.16;105093;1271;61252;-71
2022/09/08 10:10:01;;;;;;;;;;;;;;;24.60;67.40;98473.84;105234;1271;61180;-71
2022/09/08 10:12:46;;;;;;;;;;;;;;;24.66;67.18;98467.40;105247;1271;75003;-71
2022/09/08 10:15:30;;;;;;;;;;;;;;;24.73;67.42;98468.55;105226;1271;70450;-71
2022/09/08 10:18:02;;;;;;;;;;;;;;;24.69;66.61;98464.21;105206;1271;73268;-71
2022/09/08 10:20:28;;;;;;;;;;;;;;;24.69;67.11;98460.95;105209;1270;61401;-71
2022/09/08 10:23:00;;;;;;;;;;;;;;;24.76;66.44;98458.41;105203;1271;61323;-71
2022/09/08 10:25:41;;;;;;;;;;;;;;;24.81;65.91;98454.05;105208;1271;76636;-72
2022/09/08 10:28:16;;;;;;;;;;;;;;;24.91;66.06;98453.73;105214;1271;70726;-72
2022/09/08 10:31:01;;;;;;;;;;;;;;;25.01;65.18;98450.51;105202;1271;73376;-71
2022/09/08 10:33:27;;;;;;;;;;;;;;;25.10;65.82;98442.80;105263;1271;61259;-69
2022/09/08 10:36:01;;;;;;;;;;;;;;;25.25;65.60;98438.13;105229;1271;61293;-73
2022/09/08 10:38:30;;;;;;;;;;;;;;;25.34;64.84;98439.38;105244;1271;75185;-70
2022/09/08 10:40:56;;;;;;;;;;;;;;;25.37;65.09;98439.16;105231;1271;69501;-71
2022/09/08 10:43:25;;;;;;;;;;;;;;;25.50;65.53;98435.78;105277;1271;61274;-69
2022/09/08 10:45:52;;;;;;;;;;;;;;;25.61;64.50;98435.86;105219;1271;61176;-70
2022/09/08 10:48:37;;;;;;;;;;;;;;;25.63;64.63;98431.41;105253;1271;61377;-71
2022/09/08 10:51:22;;;;;;;;;;;;;;;25.72;64.32;98431.21;105234;1271;75336;-70
2022/09/08 10:54:10;;;;;;;;;;;;;;;25.86;64.02;98429.46;105053;1271;69132;-72
2022/09/08 10:56:38;;;;;;;;;;;;;;;26.03;63.82;98422.94;105219;1271;74536;-71
2022/09/08 10:59:22;;;;;;;;;;;;;;;26.13;63.72;98419.55;105231;1269;61400;-71
2022/09/08 11:01:51;;;;;;;;;;;;;;;26.22;63.35;98420.51;105273;1271;61922;-72
2022/09/08 11:04:20;;;;;;;;;;;;;;;26.33;62.82;98418.58;105245;1271;75381;-70
2022/09/08 11:06:59;;;;;;;;;;;;;;;26.30;62.15;98418.41;105290;1271;70978;-72
2022/09/08 11:09:27;;;;;;;;;;;;;;;26.23;62.78;98420.28;105319;1271;73412;-73
2022/09/08 11:12:04;;;;;;;;;;;;;;;26.31;62.99;98417.65;105286;1271;61373;-72
2022/09/08 11:14:42;;;;;;;;;;;;;;;26.42;62.34;98417.21;105236;1269;61214;-72
2022/09/08 11:17:11;;;;;;;;;;;;;;;26.47;61.67;98418.82;105248;1271;76441;-72
2022/09/08 11:19:38;;;;;;;;;;;;;;;26.44;61.33;98411.98;105370;1271;69228;-72
2022/09/08 11:22:09;;;;;;;;;;;;;;;26.44;61.22;98414.17;105280;1271;61196;-72
2022/09/08 11:24:41;;;;;;;;;;;;;;;26.47;61.56;98408.86;104978;1271;61406;-72
2022/09/08 11:27:20;;;;;;;;;;;;;;;26.62;62.08;98408.25;105281;1271;61806;-72
2022/09/08 11:29:56;;;;;;;;;;;;;;;26.71;61.63;98400.54;105212;1271;76426;-72
2022/09/08 11:32:31;;;;;;;;;;;;;;;26.78;61.74;98394.80;105247;1271;70919;-73
2022/09/08 11:35:03;;;;;;;;;;;;;;;26.86;61.25;98398.36;105010;1271;73069;-71
2022/09/08 11:37:48;;;;;;;;;;;;;;;26.90;61.30;98400.30;105238;1271;61330;-71
2022/09/08 11:40:17;;;;;;;;;;;;;;;27.00;61.08;98401.48;105246;1271;61177;-72
2022/09/08 11:42:49;;;;;;;;;;;;;;;27.15;61.22;98399.69;105223;1271;76455;-71
2022/09/08 11:45:45;;;;;;;;;;;;;;;27.33;61.11;98396.47;105223;1271;70838;-71
2022/09/08 11:48:14;;;;;;;;;;;;;;;27.58;59.01;98392.64;104583;1277;74584;-72
2022/09/08 11:50:53;;;;;;;;;;;;;;;27.65;59.13;98391.24;104538;1277;61365;-72
2022/09/08 11:53:31;;;;;;;;;;;;;;;27.67;59.08;98389.19;104523;1277;61931;-71
2022/09/08 11:56:00;;;;;;;;;;;;;;;27.63;58.99;98391.14;104487;1277;76578;-71
2022/09/08 11:58:37;;;;;;;;;;;;;;;27.43;58.53;98383.44;104541;1277;69367;-71
2022/09/08 12:01:16;;;;;;;;;;;;;;;27.20;58.37;98381.43;104395;1278;72873;-71
2022/09/08 12:04:00;;;;;;;;;;;;;;;26.94;59.16;98375.61;104560;1277;61384;-71
2022/09/08 12:06:32;;;;;;;;;;;;;;;26.78;59.63;98373.48;104591;1277;61885;-70
2022/09/08 12:09:17;;;;;;;;;;;;;;;26.70;59.89;98375.85;104613;1277;75120;-71
2022/09/08 12:12:09;;;;;;;;;;;;;;;26.76;60.45;98379.00;104529;1278;70546;-71
2022/09/08 12:14:43;;;;;;;;;;;;;;;26.79;60.20;98376.54;104000;1284;74451;-71
2022/09/08 12:17:29;;;;;;;;;;;;;;;26.79;60.21;98369.73;103977;1284;61329;-72
2022/09/08 12:19:55;;;;;;;;;;;;;;;26.76;60.26;98366.77;104011;1284;61574;-74
2022/09/08 12:22:47;;;;;;;;;;;;;;;26.78;60.35;98361.20;103953;1286;61277;-73
2022/09/08 12:25:20;;;;;;;;;;;;;;;26.94;60.69;98362.08;104256;1281;70798;-72
2022/09/08 12:28:05;;;;;;;;;;;;;;;27.12;60.90;98357.54;104512;1281;72268;-71
2022/09/08 12:30:33;;;;;;;;;;;;;;;27.30;60.52;98353.81;104411;1281;61359;-72
2022/09/08 12:33:39;;;;;;;;;;;;;;;27.40;60.41;98354.43;104210;1281;61317;-72
2022/09/08 12:36:24;;;;;;;;;;;;;;;27.43;60.19;98348.84;103976;1284;73703;-71
2022/09/08 12:38:55;;;;;;;;;;;;;;;27.43;60.25;98347.07;103929;1285;69305;-72
2022/09/08 12:41:40;;;;;;;;;;;;;;;27.33;60.35;98347.83;103944;1285;73337;-72
2022/09/08 12:44:25;;;;;;;;;;;;;;;27.25;60.59;98338.87;103934;1285;61487;-74
2022/09/08 12:46:57;;;;;;;;;;;;;;;27.23;60.91;98339.08;103933;1285;61165;-72
2022/09/08 12:49:43;;;;;;;;;;;;;;;27.23;60.84;98340.29;103904;1285;74299;-71
2022/09/08 12:52:15;;;;;;;;;;;;;;;27.22;60.62;98336.59;104181;1281;69441;-71
2022/09/08 12:54:54;;;;;;;;;;;;;;;27.38;61.10;98333.89;104530;1279;74569;-71
2022/09/08 12:57:35;;;;;;;;;;;;;;;27.63;61.26;98333.06;104575;1279;61517;-72
2022/09/08 13:00:18;;;;;;;;;;;;;;;27.83;61.04;98335.79;104504;1279;61798;-71
2022/09/08 13:03:03;;;;;;;;;;;;;;;27.78;60.11;98332.02;104523;1279;76374;-72